sensor_id;sensor_type;location;lat;lon;timestamp;P1;durP1;ratioP1;P2;durP2;ratioP2
82248;SDS011;71851;49.092;18.918;2024-03-02T00:00:40;22.88;;;13.75;;
82248;SDS011;71851;49.092;18.918;2024-03-02T00:03:42;20.42;;;13.63;;
82248;SDS011;71851;49.092;18.918;2024-03-02T00:09:44;19.90;;;13.05;;
82248;SDS011;71851;49.092;18.918;2024-03-02T00:12:46;20.95;;;13.32;;
82248;SDS011;71851;49.092;18.918;2024-03-02T00:15:48;19.60;;;13.02;;
82248;SDS011;71851;49.092;18.918;2024-03-02T00:18:51;18.60;;;12.60;;
82248;SDS011;71851;49.092;18.918;2024-03-02T00:21:52;19.95;;;12.85;;
82248;SDS011;71851;49.092;18.918;2024-03-02T00:24:52;20.80;;;12.27;;
82248;SDS011;71851;49.092;18.918;2024-03-02T00:27:54;17.88;;;12.07;;
82248;SDS011;71851;49.092;18.918;2024-03-02T00:30:55;16.17;;;11.38;;
82248;SDS011;71851;49.092;18.918;2024-03-02T00:33:57;19.10;;;12.25;;
82248;SDS011;71851;49.092;18.918;2024-03-02T00:37:05;16.98;;;11.38;;
82248;SDS011;71851;49.092;18.918;2024-03-02T00:40:06;23.52;;;13.85;;
82248;SDS011;71851;49.092;18.918;2024-03-02T00:46:45;20.52;;;13.18;;
82248;SDS011;71851;49.092;18.918;2024-03-02T00:49:46;15.07;;;11.05;;
82248;SDS011;71851;49.092;18.918;2024-03-02T00:52:47;19.33;;;11.90;;
82248;SDS011;71851;49.092;18.918;2024-03-02T00:55:48;18.00;;;11.13;;
82248;SDS011;71851;49.092;18.918;2024-03-02T00:58:49;15.20;;;11.48;;
82248;SDS011;71851;49.092;18.918;2024-03-02T01:01:50;17.05;;;10.45;;
82248;SDS011;71851;49.092;18.918;2024-03-02T01:04:50;11.38;;;9.52;;
82248;SDS011;71851;49.092;18.918;2024-03-02T01:07:51;15.85;;;11.05;;
82248;SDS011;71851;49.092;18.918;2024-03-02T01:10:52;14.77;;;9.77;;
82248;SDS011;71851;49.092;18.918;2024-03-02T01:13:52;14.07;;;9.55;;
82248;SDS011;71851;49.092;18.918;2024-03-02T01:16:53;15.13;;;9.98;;
82248;SDS011;71851;49.092;18.918;2024-03-02T01:19:53;16.92;;;10.73;;
82248;SDS011;71851;49.092;18.918;2024-03-02T01:22:53;12.52;;;9.68;;
82248;SDS011;71851;49.092;18.918;2024-03-02T01:25:54;19.70;;;12.77;;
82248;SDS011;71851;49.092;18.918;2024-03-02T01:28:55;24.27;;;15.02;;
82248;SDS011;71851;49.092;18.918;2024-03-02T01:31:55;21.80;;;12.90;;
82248;SDS011;71851;49.092;18.918;2024-03-02T01:34:55;16.50;;;11.80;;
82248;SDS011;71851;49.092;18.918;2024-03-02T01:37:56;15.30;;;10.85;;
82248;SDS011;71851;49.092;18.918;2024-03-02T01:40:56;15.38;;;10.32;;
82248;SDS011;71851;49.092;18.918;2024-03-02T01:43:57;15.43;;;10.80;;
82248;SDS011;71851;49.092;18.918;2024-03-02T01:46:57;16.17;;;9.57;;
82248;SDS011;71851;49.092;18.918;2024-03-02T01:49:58;16.63;;;9.82;;
82248;SDS011;71851;49.092;18.918;2024-03-02T01:52:58;13.52;;;8.35;;
82248;SDS011;71851;49.092;18.918;2024-03-02T01:59:01;14.68;;;9.52;;
82248;SDS011;71851;49.092;18.918;2024-03-02T02:02:02;11.57;;;9.10;;
82248;SDS011;71851;49.092;18.918;2024-03-02T02:05:02;11.48;;;8.15;;
82248;SDS011;71851;49.092;18.918;2024-03-02T02:08:04;10.65;;;7.85;;
82248;SDS011;71851;49.092;18.918;2024-03-02T02:11:04;11.73;;;7.65;;
82248;SDS011;71851;49.092;18.918;2024-03-02T02:14:06;9.23;;;7.40;;
82248;SDS011;71851;49.092;18.918;2024-03-02T02:17:07;9.63;;;7.60;;
82248;SDS011;71851;49.092;18.918;2024-03-02T02:20:08;10.27;;;7.45;;
82248;SDS011;71851;49.092;18.918;2024-03-02T02:23:09;10.90;;;7.50;;
82248;SDS011;71851;49.092;18.918;2024-03-02T02:26:10;11.43;;;7.28;;
82248;SDS011;71851;49.092;18.918;2024-03-02T02:29:10;11.52;;;6.78;;
82248;SDS011;71851;49.092;18.918;2024-03-02T02:32:11;14.30;;;8.88;;
82248;SDS011;71851;49.092;18.918;2024-03-02T02:35:11;9.18;;;7.30;;
82248;SDS011;71851;49.092;18.918;2024-03-02T02:38:13;10.23;;;8.57;;
82248;SDS011;71851;49.092;18.918;2024-03-02T02:41:14;11.30;;;6.65;;
82248;SDS011;71851;49.092;18.918;2024-03-02T02:44:14;9.82;;;7.22;;
82248;SDS011;71851;49.092;18.918;2024-03-02T02:47:14;10.38;;;7.15;;
82248;SDS011;71851;49.092;18.918;2024-03-02T02:50:16;9.05;;;7.63;;
82248;SDS011;71851;49.092;18.918;2024-03-02T02:53:16;10.45;;;7.75;;
82248;SDS011;71851;49.092;18.918;2024-03-02T02:56:17;11.32;;;7.00;;
82248;SDS011;71851;49.092;18.918;2024-03-02T02:59:17;11.25;;;7.35;;
82248;SDS011;71851;49.092;18.918;2024-03-02T03:02:17;11.48;;;7.88;;
82248;SDS011;71851;49.092;18.918;2024-03-02T03:05:18;11.98;;;7.07;;
82248;SDS011;71851;49.092;18.918;2024-03-02T03:08:19;11.45;;;8.48;;
82248;SDS011;71851;49.092;18.918;2024-03-02T03:11:20;8.60;;;7.30;;
82248;SDS011;71851;49.092;18.918;2024-03-02T03:14:22;10.45;;;7.82;;
82248;SDS011;71851;49.092;18.918;2024-03-02T03:17:23;9.93;;;7.07;;
82248;SDS011;71851;49.092;18.918;2024-03-02T03:20:23;11.45;;;7.25;;
82248;SDS011;71851;49.092;18.918;2024-03-02T03:23:24;11.65;;;7.20;;
82248;SDS011;71851;49.092;18.918;2024-03-02T03:26:25;13.52;;;7.85;;
82248;SDS011;71851;49.092;18.918;2024-03-02T03:29:26;14.18;;;8.20;;
82248;SDS011;71851;49.092;18.918;2024-03-02T03:32:26;14.05;;;8.10;;
82248;SDS011;71851;49.092;18.918;2024-03-02T03:35:27;13.10;;;6.63;;
82248;SDS011;71851;49.092;18.918;2024-03-02T03:38:27;11.30;;;7.78;;
82248;SDS011;71851;49.092;18.918;2024-03-02T03:41:27;10.77;;;7.15;;
82248;SDS011;71851;49.092;18.918;2024-03-02T03:44:29;11.98;;;7.47;;
82248;SDS011;71851;49.092;18.918;2024-03-02T03:47:30;9.98;;;7.10;;
82248;SDS011;71851;49.092;18.918;2024-03-02T03:50:31;10.35;;;6.97;;
82248;SDS011;71851;49.092;18.918;2024-03-02T03:53:31;13.00;;;7.38;;
82248;SDS011;71851;49.092;18.918;2024-03-02T03:56:32;9.98;;;6.97;;
82248;SDS011;71851;49.092;18.918;2024-03-02T03:59:32;11.63;;;9.57;;
82248;SDS011;71851;49.092;18.918;2024-03-02T04:02:33;9.85;;;6.53;;
82248;SDS011;71851;49.092;18.918;2024-03-02T04:05:33;11.77;;;7.97;;
82248;SDS011;71851;49.092;18.918;2024-03-02T04:08:34;11.48;;;7.07;;
82248;SDS011;71851;49.092;18.918;2024-03-02T04:11:34;9.65;;;7.53;;
82248;SDS011;71851;49.092;18.918;2024-03-02T04:14:34;11.10;;;7.90;;
82248;SDS011;71851;49.092;18.918;2024-03-02T04:17:35;13.57;;;8.60;;
82248;SDS011;71851;49.092;18.918;2024-03-02T04:20:35;13.23;;;8.80;;
82248;SDS011;71851;49.092;18.918;2024-03-02T04:23:36;14.27;;;9.05;;
82248;SDS011;71851;49.092;18.918;2024-03-02T04:26:36;13.55;;;9.13;;
82248;SDS011;71851;49.092;18.918;2024-03-02T04:29:36;12.90;;;8.00;;
82248;SDS011;71851;49.092;18.918;2024-03-02T04:32:37;14.13;;;8.38;;
82248;SDS011;71851;49.092;18.918;2024-03-02T04:35:37;15.13;;;7.35;;
82248;SDS011;71851;49.092;18.918;2024-03-02T04:38:38;11.32;;;7.90;;
82248;SDS011;71851;49.092;18.918;2024-03-02T04:41:38;12.70;;;6.50;;
82248;SDS011;71851;49.092;18.918;2024-03-02T04:44:39;13.82;;;8.13;;
82248;SDS011;71851;49.092;18.918;2024-03-02T04:47:39;11.65;;;7.22;;
82248;SDS011;71851;49.092;18.918;2024-03-02T04:50:40;10.43;;;7.53;;
82248;SDS011;71851;49.092;18.918;2024-03-02T04:53:40;12.70;;;7.10;;
82248;SDS011;71851;49.092;18.918;2024-03-02T04:56:41;12.95;;;7.05;;
82248;SDS011;71851;49.092;18.918;2024-03-02T04:59:45;13.68;;;8.38;;
82248;SDS011;71851;49.092;18.918;2024-03-02T05:02:45;13.75;;;9.07;;
82248;SDS011;71851;49.092;18.918;2024-03-02T05:05:47;9.13;;;7.03;;
82248;SDS011;71851;49.092;18.918;2024-03-02T05:08:47;11.35;;;7.13;;
82248;SDS011;71851;49.092;18.918;2024-03-02T05:11:48;12.50;;;7.40;;
82248;SDS011;71851;49.092;18.918;2024-03-02T05:14:48;12.52;;;7.93;;
82248;SDS011;71851;49.092;18.918;2024-03-02T05:17:49;9.82;;;6.80;;
82248;SDS011;71851;49.092;18.918;2024-03-02T05:20:49;9.52;;;7.00;;
82248;SDS011;71851;49.092;18.918;2024-03-02T05:23:49;9.45;;;7.72;;
82248;SDS011;71851;49.092;18.918;2024-03-02T05:26:50;9.23;;;6.70;;
82248;SDS011;71851;49.092;18.918;2024-03-02T05:29:50;10.07;;;7.78;;
82248;SDS011;71851;49.092;18.918;2024-03-02T05:32:50;10.82;;;7.65;;
82248;SDS011;71851;49.092;18.918;2024-03-02T05:35:51;14.52;;;8.40;;
82248;SDS011;71851;49.092;18.918;2024-03-02T05:38:51;15.02;;;8.25;;
82248;SDS011;71851;49.092;18.918;2024-03-02T05:41:53;14.60;;;8.82;;
82248;SDS011;71851;49.092;18.918;2024-03-02T05:44:53;12.60;;;8.52;;
82248;SDS011;71851;49.092;18.918;2024-03-02T05:47:54;13.25;;;8.70;;
82248;SDS011;71851;49.092;18.918;2024-03-02T05:50:54;15.82;;;11.02;;
82248;SDS011;71851;49.092;18.918;2024-03-02T05:53:55;13.70;;;9.20;;
82248;SDS011;71851;49.092;18.918;2024-03-02T05:56:55;14.85;;;9.60;;
82248;SDS011;71851;49.092;18.918;2024-03-02T05:59:56;13.30;;;8.80;;
82248;SDS011;71851;49.092;18.918;2024-03-02T06:02:56;12.13;;;8.63;;
82248;SDS011;71851;49.092;18.918;2024-03-02T06:05:57;14.93;;;10.32;;
82248;SDS011;71851;49.092;18.918;2024-03-02T06:08:57;18.48;;;11.18;;
82248;SDS011;71851;49.092;18.918;2024-03-02T06:11:58;19.38;;;12.48;;
82248;SDS011;71851;49.092;18.918;2024-03-02T06:14:59;18.95;;;11.77;;
82248;SDS011;71851;49.092;18.918;2024-03-02T06:17:59;19.30;;;12.55;;
82248;SDS011;71851;49.092;18.918;2024-03-02T06:21:00;14.80;;;10.95;;
82248;SDS011;71851;49.092;18.918;2024-03-02T06:24:03;13.25;;;9.07;;
82248;SDS011;71851;49.092;18.918;2024-03-02T06:27:04;13.52;;;8.48;;
82248;SDS011;71851;49.092;18.918;2024-03-02T06:30:05;15.07;;;9.35;;
82248;SDS011;71851;49.092;18.918;2024-03-02T06:33:06;14.77;;;9.13;;
82248;SDS011;71851;49.092;18.918;2024-03-02T06:36:06;18.13;;;9.68;;
82248;SDS011;71851;49.092;18.918;2024-03-02T06:39:11;15.93;;;9.50;;
82248;SDS011;71851;49.092;18.918;2024-03-02T06:42:12;12.02;;;9.13;;
82248;SDS011;71851;49.092;18.918;2024-03-02T06:45:13;14.68;;;8.80;;
82248;SDS011;71851;49.092;18.918;2024-03-02T06:48:13;10.77;;;7.82;;
82248;SDS011;71851;49.092;18.918;2024-03-02T06:51:18;12.73;;;8.43;;
82248;SDS011;71851;49.092;18.918;2024-03-02T06:54:19;13.25;;;8.38;;
82248;SDS011;71851;49.092;18.918;2024-03-02T06:57:19;14.30;;;8.50;;
82248;SDS011;71851;49.092;18.918;2024-03-02T07:00:20;12.80;;;9.10;;
82248;SDS011;71851;49.092;18.918;2024-03-02T07:03:21;16.27;;;11.10;;
82248;SDS011;71851;49.092;18.918;2024-03-02T07:06:21;15.18;;;10.32;;
82248;SDS011;71851;49.092;18.918;2024-03-02T07:09:22;17.45;;;11.55;;
82248;SDS011;71851;49.092;18.918;2024-03-02T07:12:23;20.27;;;12.57;;
82248;SDS011;71851;49.092;18.918;2024-03-02T07:15:23;19.10;;;13.73;;
82248;SDS011;71851;49.092;18.918;2024-03-02T07:18:42;18.23;;;13.57;;
82248;SDS011;71851;49.092;18.918;2024-03-02T07:21:46;25.40;;;14.80;;
82248;SDS011;71851;49.092;18.918;2024-03-02T07:24:46;20.05;;;12.95;;
82248;SDS011;71851;49.092;18.918;2024-03-02T07:27:46;21.00;;;13.38;;
82248;SDS011;71851;49.092;18.918;2024-03-02T07:30:57;20.05;;;13.23;;
82248;SDS011;71851;49.092;18.918;2024-03-02T07:34:01;18.67;;;12.85;;
82248;SDS011;71851;49.092;18.918;2024-03-02T07:37:02;18.63;;;12.85;;
82248;SDS011;71851;49.092;18.918;2024-03-02T07:40:03;19.55;;;12.95;;
82248;SDS011;71851;49.092;18.918;2024-03-02T07:43:04;18.58;;;13.52;;
82248;SDS011;71851;49.092;18.918;2024-03-02T07:46:05;17.50;;;12.02;;
82248;SDS011;71851;49.092;18.918;2024-03-02T07:49:06;21.67;;;14.05;;
82248;SDS011;71851;49.092;18.918;2024-03-02T07:52:06;19.33;;;12.85;;
82248;SDS011;71851;49.092;18.918;2024-03-02T07:55:10;21.23;;;13.00;;
82248;SDS011;71851;49.092;18.918;2024-03-02T07:58:11;18.63;;;13.43;;
82248;SDS011;71851;49.092;18.918;2024-03-02T08:01:11;20.60;;;13.70;;
82248;SDS011;71851;49.092;18.918;2024-03-02T08:04:12;22.70;;;14.48;;
82248;SDS011;71851;49.092;18.918;2024-03-02T08:07:12;18.88;;;13.15;;
82248;SDS011;71851;49.092;18.918;2024-03-02T08:10:13;19.05;;;14.98;;
82248;SDS011;71851;49.092;18.918;2024-03-02T08:13:13;22.30;;;14.02;;
82248;SDS011;71851;49.092;18.918;2024-03-02T08:16:20;23.23;;;14.95;;
82248;SDS011;71851;49.092;18.918;2024-03-02T08:19:22;23.95;;;14.20;;
82248;SDS011;71851;49.092;18.918;2024-03-02T08:22:23;22.48;;;13.90;;
82248;SDS011;71851;49.092;18.918;2024-03-02T08:25:26;24.27;;;15.88;;
82248;SDS011;71851;49.092;18.918;2024-03-02T08:28:26;21.77;;;14.82;;
82248;SDS011;71851;49.092;18.918;2024-03-02T08:31:27;19.83;;;13.55;;
82248;SDS011;71851;49.092;18.918;2024-03-02T08:34:28;22.90;;;15.40;;
82248;SDS011;71851;49.092;18.918;2024-03-02T08:37:28;22.25;;;16.05;;
82248;SDS011;71851;49.092;18.918;2024-03-02T08:40:28;24.42;;;16.55;;
82248;SDS011;71851;49.092;18.918;2024-03-02T08:43:29;23.88;;;16.25;;
82248;SDS011;71851;49.092;18.918;2024-03-02T08:46:29;21.10;;;15.48;;
82248;SDS011;71851;49.092;18.918;2024-03-02T08:49:30;21.98;;;15.50;;
82248;SDS011;71851;49.092;18.918;2024-03-02T08:52:30;21.75;;;16.48;;
82248;SDS011;71851;49.092;18.918;2024-03-02T08:55:31;25.30;;;15.43;;
82248;SDS011;71851;49.092;18.918;2024-03-02T08:58:31;28.15;;;17.65;;
82248;SDS011;71851;49.092;18.918;2024-03-02T09:01:32;24.52;;;15.18;;
82248;SDS011;71851;49.092;18.918;2024-03-02T09:04:33;24.02;;;16.33;;
82248;SDS011;71851;49.092;18.918;2024-03-02T09:07:33;25.35;;;16.58;;
82248;SDS011;71851;49.092;18.918;2024-03-02T09:10:34;25.88;;;16.70;;
82248;SDS011;71851;49.092;18.918;2024-03-02T09:13:34;22.70;;;15.52;;
82248;SDS011;71851;49.092;18.918;2024-03-02T09:16:35;29.10;;;17.98;;
82248;SDS011;71851;49.092;18.918;2024-03-02T09:19:35;23.35;;;15.95;;
82248;SDS011;71851;49.092;18.918;2024-03-02T09:22:36;22.45;;;16.50;;
82248;SDS011;71851;49.092;18.918;2024-03-02T09:25:36;25.50;;;15.23;;
82248;SDS011;71851;49.092;18.918;2024-03-02T09:28:38;21.02;;;14.52;;
82248;SDS011;71851;49.092;18.918;2024-03-02T09:31:43;21.77;;;14.65;;
82248;SDS011;71851;49.092;18.918;2024-03-02T09:34:44;23.92;;;15.50;;
82248;SDS011;71851;49.092;18.918;2024-03-02T09:37:44;24.88;;;14.68;;
82248;SDS011;71851;49.092;18.918;2024-03-02T09:40:45;26.35;;;16.42;;
82248;SDS011;71851;49.092;18.918;2024-03-02T09:43:45;22.17;;;15.05;;
82248;SDS011;71851;49.092;18.918;2024-03-02T09:46:49;25.38;;;16.70;;
82248;SDS011;71851;49.092;18.918;2024-03-02T09:49:50;23.55;;;15.90;;
82248;SDS011;71851;49.092;18.918;2024-03-02T09:52:50;25.33;;;15.43;;
82248;SDS011;71851;49.092;18.918;2024-03-02T09:55:52;22.02;;;14.52;;
82248;SDS011;71851;49.092;18.918;2024-03-02T09:58:54;20.90;;;15.40;;
82248;SDS011;71851;49.092;18.918;2024-03-02T10:02:03;22.08;;;16.00;;
82248;SDS011;71851;49.092;18.918;2024-03-02T10:05:07;20.33;;;16.50;;
82248;SDS011;71851;49.092;18.918;2024-03-02T10:08:12;20.27;;;13.95;;
82248;SDS011;71851;49.092;18.918;2024-03-02T10:11:21;20.98;;;15.68;;
82248;SDS011;71851;49.092;18.918;2024-03-02T10:14:27;19.08;;;13.63;;
82248;SDS011;71851;49.092;18.918;2024-03-02T10:17:27;21.50;;;14.88;;
82248;SDS011;71851;49.092;18.918;2024-03-02T10:20:31;18.25;;;13.20;;
82248;SDS011;71851;49.092;18.918;2024-03-02T10:23:33;19.67;;;13.02;;
82248;SDS011;71851;49.092;18.918;2024-03-02T10:26:34;18.90;;;12.15;;
82248;SDS011;71851;49.092;18.918;2024-03-02T10:29:38;20.27;;;13.52;;
82248;SDS011;71851;49.092;18.918;2024-03-02T10:32:41;19.35;;;13.13;;
82248;SDS011;71851;49.092;18.918;2024-03-02T10:35:42;17.25;;;11.57;;
82248;SDS011;71851;49.092;18.918;2024-03-02T10:38:44;17.98;;;11.80;;
82248;SDS011;71851;49.092;18.918;2024-03-02T10:41:45;18.05;;;12.05;;
82248;SDS011;71851;49.092;18.918;2024-03-02T10:44:49;17.75;;;12.10;;
82248;SDS011;71851;49.092;18.918;2024-03-02T10:47:50;18.75;;;12.38;;
82248;SDS011;71851;49.092;18.918;2024-03-02T10:50:51;18.77;;;12.70;;
82248;SDS011;71851;49.092;18.918;2024-03-02T10:53:52;23.02;;;12.40;;
82248;SDS011;71851;49.092;18.918;2024-03-02T10:56:52;18.25;;;12.10;;
82248;SDS011;71851;49.092;18.918;2024-03-02T11:02:58;18.95;;;13.07;;
82248;SDS011;71851;49.092;18.918;2024-03-02T11:06:07;18.35;;;12.98;;
82248;SDS011;71851;49.092;18.918;2024-03-02T11:09:08;17.73;;;13.15;;
82248;SDS011;71851;49.092;18.918;2024-03-02T11:12:15;26.38;;;16.08;;
82248;SDS011;71851;49.092;18.918;2024-03-02T11:15:20;26.38;;;19.90;;
82248;SDS011;71851;49.092;18.918;2024-03-02T11:18:25;28.75;;;19.50;;
82248;SDS011;71851;49.092;18.918;2024-03-02T11:21:30;28.30;;;19.38;;
82248;SDS011;71851;49.092;18.918;2024-03-02T11:24:33;25.35;;;17.55;;
82248;SDS011;71851;49.092;18.918;2024-03-02T11:33:46;23.27;;;16.58;;
82248;SDS011;71851;49.092;18.918;2024-03-02T11:36:47;22.38;;;16.23;;
82248;SDS011;71851;49.092;18.918;2024-03-02T11:39:50;23.65;;;16.15;;
82248;SDS011;71851;49.092;18.918;2024-03-02T11:42:51;25.33;;;16.33;;
82248;SDS011;71851;49.092;18.918;2024-03-02T11:45:56;21.42;;;14.48;;
82248;SDS011;71851;49.092;18.918;2024-03-02T11:48:59;16.58;;;12.50;;
82248;SDS011;71851;49.092;18.918;2024-03-02T11:52:02;15.75;;;12.10;;
82248;SDS011;71851;49.092;18.918;2024-03-02T11:55:05;19.70;;;13.75;;
82248;SDS011;71851;49.092;18.918;2024-03-02T11:58:09;24.42;;;15.85;;
82248;SDS011;71851;49.092;18.918;2024-03-02T12:01:10;23.27;;;16.00;;
82248;SDS011;71851;49.092;18.918;2024-03-02T12:04:10;20.02;;;14.18;;
82248;SDS011;71851;49.092;18.918;2024-03-02T12:07:11;21.05;;;13.35;;
82248;SDS011;71851;49.092;18.918;2024-03-02T12:10:12;19.73;;;13.65;;
82248;SDS011;71851;49.092;18.918;2024-03-02T12:13:15;19.30;;;14.98;;
82248;SDS011;71851;49.092;18.918;2024-03-02T12:16:22;22.60;;;16.58;;
82248;SDS011;71851;49.092;18.918;2024-03-02T12:19:24;23.48;;;14.63;;
82248;SDS011;71851;49.092;18.918;2024-03-02T12:22:25;20.42;;;14.35;;
82248;SDS011;71851;49.092;18.918;2024-03-02T12:25:26;23.42;;;15.75;;
82248;SDS011;71851;49.092;18.918;2024-03-02T12:28:27;20.20;;;13.95;;
82248;SDS011;71851;49.092;18.918;2024-03-02T12:31:28;21.02;;;14.05;;
82248;SDS011;71851;49.092;18.918;2024-03-02T12:34:28;19.42;;;13.32;;
82248;SDS011;71851;49.092;18.918;2024-03-02T12:37:30;21.42;;;16.33;;
82248;SDS011;71851;49.092;18.918;2024-03-02T12:40:30;18.23;;;13.68;;
82248;SDS011;71851;49.092;18.918;2024-03-02T12:43:32;21.25;;;15.13;;
82248;SDS011;71851;49.092;18.918;2024-03-02T12:46:32;19.40;;;14.20;;
82248;SDS011;71851;49.092;18.918;2024-03-02T12:49:33;22.85;;;14.68;;
82248;SDS011;71851;49.092;18.918;2024-03-02T12:52:35;25.08;;;15.45;;
82248;SDS011;71851;49.092;18.918;2024-03-02T12:55:36;21.45;;;15.23;;
82248;SDS011;71851;49.092;18.918;2024-03-02T12:58:39;23.25;;;16.08;;
82248;SDS011;71851;49.092;18.918;2024-03-02T13:01:52;23.55;;;16.27;;
82248;SDS011;71851;49.092;18.918;2024-03-02T13:05:02;27.75;;;18.88;;
82248;SDS011;71851;49.092;18.918;2024-03-02T13:08:04;26.10;;;17.95;;
82248;SDS011;71851;49.092;18.918;2024-03-02T13:11:07;25.50;;;18.20;;
82248;SDS011;71851;49.092;18.918;2024-03-02T13:14:07;21.98;;;15.82;;
82248;SDS011;71851;49.092;18.918;2024-03-02T13:17:08;25.95;;;19.48;;
82248;SDS011;71851;49.092;18.918;2024-03-02T13:20:09;21.23;;;15.32;;
82248;SDS011;71851;49.092;18.918;2024-03-02T13:23:10;30.38;;;16.27;;
82248;SDS011;71851;49.092;18.918;2024-03-02T13:26:10;20.73;;;16.05;;
82248;SDS011;71851;49.092;18.918;2024-03-02T13:29:12;23.63;;;16.33;;
82248;SDS011;71851;49.092;18.918;2024-03-02T13:32:13;26.75;;;19.88;;
82248;SDS011;71851;49.092;18.918;2024-03-02T13:35:17;22.90;;;15.05;;
82248;SDS011;71851;49.092;18.918;2024-03-02T13:38:18;21.63;;;15.07;;
82248;SDS011;71851;49.092;18.918;2024-03-02T13:41:19;20.98;;;15.15;;
82248;SDS011;71851;49.092;18.918;2024-03-02T13:44:21;23.88;;;15.88;;
82248;SDS011;71851;49.092;18.918;2024-03-02T13:47:22;25.73;;;16.90;;
82248;SDS011;71851;49.092;18.918;2024-03-02T13:50:23;22.92;;;15.95;;
82248;SDS011;71851;49.092;18.918;2024-03-02T13:53:23;25.83;;;18.02;;
82248;SDS011;71851;49.092;18.918;2024-03-02T13:56:24;24.98;;;16.67;;
82248;SDS011;71851;49.092;18.918;2024-03-02T13:59:24;22.15;;;16.48;;
82248;SDS011;71851;49.092;18.918;2024-03-02T14:02:25;22.35;;;15.65;;
82248;SDS011;71851;49.092;18.918;2024-03-02T14:05:26;24.33;;;17.08;;
82248;SDS011;71851;49.092;18.918;2024-03-02T14:08:27;23.67;;;15.85;;
82248;SDS011;71851;49.092;18.918;2024-03-02T14:11:27;22.60;;;15.98;;
82248;SDS011;71851;49.092;18.918;2024-03-02T14:14:27;23.65;;;17.90;;
82248;SDS011;71851;49.092;18.918;2024-03-02T14:17:28;22.48;;;15.68;;
82248;SDS011;71851;49.092;18.918;2024-03-02T14:20:31;19.95;;;14.05;;
82248;SDS011;71851;49.092;18.918;2024-03-02T14:23:32;18.48;;;13.32;;
82248;SDS011;71851;49.092;18.918;2024-03-02T14:26:33;18.20;;;13.82;;
82248;SDS011;71851;49.092;18.918;2024-03-02T14:29:34;16.85;;;13.68;;
82248;SDS011;71851;49.092;18.918;2024-03-02T14:32:36;17.45;;;11.90;;
82248;SDS011;71851;49.092;18.918;2024-03-02T14:35:37;19.58;;;14.75;;
82248;SDS011;71851;49.092;18.918;2024-03-02T14:38:37;19.50;;;12.23;;
82248;SDS011;71851;49.092;18.918;2024-03-02T14:41:38;18.92;;;13.30;;
82248;SDS011;71851;49.092;18.918;2024-03-02T14:44:39;18.40;;;13.10;;
82248;SDS011;71851;49.092;18.918;2024-03-02T14:47:39;16.45;;;12.35;;
82248;SDS011;71851;49.092;18.918;2024-03-02T14:50:40;16.15;;;13.73;;
82248;SDS011;71851;49.092;18.918;2024-03-02T14:53:41;20.30;;;12.48;;
82248;SDS011;71851;49.092;18.918;2024-03-02T14:56:42;16.60;;;11.13;;
82248;SDS011;71851;49.092;18.918;2024-03-02T14:59:43;15.57;;;12.02;;
82248;SDS011;71851;49.092;18.918;2024-03-02T15:02:43;16.23;;;11.68;;
82248;SDS011;71851;49.092;18.918;2024-03-02T15:05:44;15.48;;;11.45;;
82248;SDS011;71851;49.092;18.918;2024-03-02T15:08:45;15.48;;;10.98;;
82248;SDS011;71851;49.092;18.918;2024-03-02T15:11:49;14.10;;;10.52;;
82248;SDS011;71851;49.092;18.918;2024-03-02T15:14:49;15.77;;;11.15;;
82248;SDS011;71851;49.092;18.918;2024-03-02T15:17:50;16.23;;;10.38;;
82248;SDS011;71851;49.092;18.918;2024-03-02T15:20:50;15.38;;;11.23;;
82248;SDS011;71851;49.092;18.918;2024-03-02T15:23:51;18.10;;;10.73;;
82248;SDS011;71851;49.092;18.918;2024-03-02T15:26:51;16.85;;;12.35;;
82248;SDS011;71851;49.092;18.918;2024-03-02T15:29:51;19.67;;;12.25;;
82248;SDS011;71851;49.092;18.918;2024-03-02T15:32:52;18.63;;;12.00;;
82248;SDS011;71851;49.092;18.918;2024-03-02T15:35:52;16.52;;;11.63;;
82248;SDS011;71851;49.092;18.918;2024-03-02T15:38:53;16.50;;;12.32;;
82248;SDS011;71851;49.092;18.918;2024-03-02T15:41:53;17.05;;;13.00;;
82248;SDS011;71851;49.092;18.918;2024-03-02T15:44:54;17.27;;;12.52;;
82248;SDS011;71851;49.092;18.918;2024-03-02T15:47:55;17.77;;;11.75;;
82248;SDS011;71851;49.092;18.918;2024-03-02T15:50:55;16.60;;;11.98;;
82248;SDS011;71851;49.092;18.918;2024-03-02T15:53:56;17.92;;;12.82;;
82248;SDS011;71851;49.092;18.918;2024-03-02T15:56:56;18.65;;;12.95;;
82248;SDS011;71851;49.092;18.918;2024-03-02T15:59:58;17.27;;;13.15;;
82248;SDS011;71851;49.092;18.918;2024-03-02T16:02:58;17.67;;;12.45;;
82248;SDS011;71851;49.092;18.918;2024-03-02T16:05:58;18.88;;;12.70;;
82248;SDS011;71851;49.092;18.918;2024-03-02T16:08:59;16.92;;;13.00;;
82248;SDS011;71851;49.092;18.918;2024-03-02T16:12:00;17.65;;;12.82;;
82248;SDS011;71851;49.092;18.918;2024-03-02T16:15:00;16.85;;;12.38;;
82248;SDS011;71851;49.092;18.918;2024-03-02T16:18:00;18.20;;;12.98;;
82248;SDS011;71851;49.092;18.918;2024-03-02T16:21:02;16.70;;;11.52;;
82248;SDS011;71851;49.092;18.918;2024-03-02T16:24:04;15.85;;;11.20;;
82248;SDS011;71851;49.092;18.918;2024-03-02T16:27:04;14.60;;;10.27;;
82248;SDS011;71851;49.092;18.918;2024-03-02T16:30:05;16.80;;;12.02;;
82248;SDS011;71851;49.092;18.918;2024-03-02T16:33:06;17.98;;;11.82;;
82248;SDS011;71851;49.092;18.918;2024-03-02T16:36:07;16.38;;;12.50;;
82248;SDS011;71851;49.092;18.918;2024-03-02T16:39:09;18.63;;;13.23;;
82248;SDS011;71851;49.092;18.918;2024-03-02T16:42:11;20.52;;;13.07;;
82248;SDS011;71851;49.092;18.918;2024-03-02T16:45:11;17.02;;;11.57;;
82248;SDS011;71851;49.092;18.918;2024-03-02T16:48:11;50.50;;;35.58;;
82248;SDS011;71851;49.092;18.918;2024-03-02T16:51:12;39.17;;;28.88;;
82248;SDS011;71851;49.092;18.918;2024-03-02T16:54:13;43.72;;;30.48;;
82248;SDS011;71851;49.092;18.918;2024-03-02T16:57:14;74.72;;;46.03;;
82248;SDS011;71851;49.092;18.918;2024-03-02T17:00:14;128.02;;;64.30;;
82248;SDS011;71851;49.092;18.918;2024-03-02T17:03:15;107.57;;;57.80;;
82248;SDS011;71851;49.092;18.918;2024-03-02T17:06:16;55.00;;;34.83;;
82248;SDS011;71851;49.092;18.918;2024-03-02T17:09:16;40.72;;;27.40;;
82248;SDS011;71851;49.092;18.918;2024-03-02T17:12:17;36.53;;;24.15;;
82248;SDS011;71851;49.092;18.918;2024-03-02T17:15:17;32.60;;;21.92;;
82248;SDS011;71851;49.092;18.918;2024-03-02T17:18:17;36.03;;;24.17;;
82248;SDS011;71851;49.092;18.918;2024-03-02T17:21:18;36.40;;;25.38;;
82248;SDS011;71851;49.092;18.918;2024-03-02T17:24:18;30.83;;;23.15;;
82248;SDS011;71851;49.092;18.918;2024-03-02T17:27:18;43.28;;;27.98;;
82248;SDS011;71851;49.092;18.918;2024-03-02T17:30:19;45.88;;;26.50;;
82248;SDS011;71851;49.092;18.918;2024-03-02T17:33:21;36.63;;;22.50;;
82248;SDS011;71851;49.092;18.918;2024-03-02T17:36:21;34.80;;;21.40;;
82248;SDS011;71851;49.092;18.918;2024-03-02T17:39:22;38.70;;;23.15;;
82248;SDS011;71851;49.092;18.918;2024-03-02T17:42:22;34.05;;;21.73;;
82248;SDS011;71851;49.092;18.918;2024-03-02T17:45:23;33.35;;;22.35;;
82248;SDS011;71851;49.092;18.918;2024-03-02T17:48:23;34.90;;;21.65;;